sensor_id;sensor_type;location;lat;lon;timestamp;P1;durP1;ratioP1;P2;durP2;ratioP2
35909;SDS011;22004;49.120;-0.200;2022-09-13T00:01:40;3.45;;;1.30;;
35909;SDS011;22004;49.120;-0.200;2022-09-13T00:04:06;7.07;;;1.40;;
35909;SDS011;22004;49.120;-0.200;2022-09-13T00:06:31;3.80;;;1.35;;
35909;SDS011;22004;49.120;-0.200;2022-09-13T00:08:57;5.28;;;1.30;;
35909;SDS011;22004;49.120;-0.200;2022-09-13T00:11:23;3.25;;;1.40;;
35909;SDS011;22004;49.120;-0.200;2022-09-13T00:13:50;4.80;;;1.65;;
35909;SDS011;22004;49.120;-0.200;2022-09-13T00:16:16;7.63;;;1.83;;
35909;SDS011;22004;49.120;-0.200;2022-09-13T00:18:44;2.58;;;1.52;;
35909;SDS011;22004;49.120;-0.200;2022-09-13T00:21:11;6.32;;;2.00;;
35909;SDS011;22004;49.120;-0.200;2022-09-13T00:23:38;5.80;;;1.40;;
35909;SDS011;22004;49.120;-0.200;2022-09-13T00:26:06;1.90;;;1.30;;
35909;SDS011;22004;49.120;-0.200;2022-09-13T00:28:36;3.15;;;1.30;;
35909;SDS011;22004;49.120;-0.200;2022-09-13T00:31:02;3.25;;;1.70;;
35909;SDS011;22004;49.120;-0.200;2022-09-13T00:33:29;6.70;;;1.70;;
35909;SDS011;22004;49.120;-0.200;2022-09-13T00:35:55;4.50;;;1.50;;
35909;SDS011;22004;49.120;-0.200;2022-09-13T00:38:21;2.53;;;1.30;;
35909;SDS011;22004;49.120;-0.200;2022-09-13T00:40:46;7.93;;;1.70;;
35909;SDS011;22004;49.120;-0.200;2022-09-13T00:43:16;2.97;;;1.27;;
35909;SDS011;22004;49.120;-0.200;2022-09-13T00:45:44;2.53;;;1.48;;
35909;SDS011;22004;49.120;-0.200;2022-09-13T00:48:16;8.60;;;2.10;;
35909;SDS011;22004;49.120;-0.200;2022-09-13T00:50:47;9.93;;;2.72;;
35909;SDS011;22004;49.120;-0.200;2022-09-13T00:53:19;13.90;;;2.90;;
35909;SDS011;22004;49.120;-0.200;2022-09-13T00:58:34;7.28;;;2.28;;
35909;SDS011;22004;49.120;-0.200;2022-09-13T01:01:05;10.65;;;2.15;;
35909;SDS011;22004;49.120;-0.200;2022-09-13T01:03:34;5.00;;;1.80;;
35909;SDS011;22004;49.120;-0.200;2022-09-13T01:06:13;6.70;;;2.05;;
35909;SDS011;22004;49.120;-0.200;2022-09-13T01:08:43;2.13;;;1.83;;
35909;SDS011;22004;49.120;-0.200;2022-09-13T01:11:18;6.57;;;2.13;;
35909;SDS011;22004;49.120;-0.200;2022-09-13T01:13:49;4.85;;;1.95;;
35909;SDS011;22004;49.120;-0.200;2022-09-13T01:16:16;8.63;;;2.10;;
35909;SDS011;22004;49.120;-0.200;2022-09-13T01:18:42;4.13;;;1.73;;
35909;SDS011;22004;49.120;-0.200;2022-09-13T01:30:17;4.80;;;1.80;;
35909;SDS011;22004;49.120;-0.200;2022-09-13T01:37:30;5.53;;;1.90;;
35909;SDS011;22004;49.120;-0.200;2022-09-13T01:40:18;2.75;;;1.88;;
35909;SDS011;22004;49.120;-0.200;2022-09-13T01:48:04;4.20;;;1.70;;
35909;SDS011;22004;49.120;-0.200;2022-09-13T01:51:08;5.18;;;1.80;;
35909;SDS011;22004;49.120;-0.200;2022-09-13T01:56:22;3.08;;;1.77;;
35909;SDS011;22004;49.120;-0.200;2022-09-13T02:02:23;8.05;;;2.50;;
35909;SDS011;22004;49.120;-0.200;2022-09-13T02:04:57;3.13;;;1.98;;
35909;SDS011;22004;49.120;-0.200;2022-09-13T02:07:29;4.18;;;2.13;;
35909;SDS011;22004;49.120;-0.200;2022-09-13T02:10:05;6.05;;;2.10;;
35909;SDS011;22004;49.120;-0.200;2022-09-13T02:12:41;9.38;;;2.10;;
35909;SDS011;22004;49.120;-0.200;2022-09-13T02:15:11;6.13;;;2.20;;
35909;SDS011;22004;49.120;-0.200;2022-09-13T02:17:45;4.97;;;2.25;;
35909;SDS011;22004;49.120;-0.200;2022-09-13T02:20:24;3.47;;;1.98;;
35909;SDS011;22004;49.120;-0.200;2022-09-13T02:22:56;4.38;;;2.22;;
35909;SDS011;22004;49.120;-0.200;2022-09-13T02:25:26;4.63;;;2.30;;
35909;SDS011;22004;49.120;-0.200;2022-09-13T02:27:56;4.22;;;2.22;;
35909;SDS011;22004;49.120;-0.200;2022-09-13T02:30:27;3.20;;;2.15;;
35909;SDS011;22004;49.120;-0.200;2022-09-13T02:32:59;4.55;;;1.77;;
35909;SDS011;22004;49.120;-0.200;2022-09-13T02:38:01;2.67;;;1.80;;
35909;SDS011;22004;49.120;-0.200;2022-09-13T02:40:38;4.25;;;2.25;;
35909;SDS011;22004;49.120;-0.200;2022-09-13T02:43:14;3.90;;;1.92;;
35909;SDS011;22004;49.120;-0.200;2022-09-13T02:46:35;5.75;;;2.30;;
35909;SDS011;22004;49.120;-0.200;2022-09-13T02:48:50;5.63;;;2.13;;
35909;SDS011;22004;49.120;-0.200;2022-09-13T02:51:32;4.03;;;1.90;;
35909;SDS011;22004;49.120;-0.200;2022-09-13T02:57:12;5.32;;;2.03;;
35909;SDS011;22004;49.120;-0.200;2022-09-13T02:59:42;8.75;;;2.10;;
35909;SDS011;22004;49.120;-0.200;2022-09-13T03:02:11;4.03;;;1.85;;
35909;SDS011;22004;49.120;-0.200;2022-09-13T03:04:40;5.85;;;2.10;;
35909;SDS011;22004;49.120;-0.200;2022-09-13T03:07:09;4.07;;;2.25;;
35909;SDS011;22004;49.120;-0.200;2022-09-13T03:09:40;4.05;;;2.45;;
35909;SDS011;22004;49.120;-0.200;2022-09-13T03:14:51;7.55;;;2.25;;
35909;SDS011;22004;49.120;-0.200;2022-09-13T03:20:07;6.03;;;1.90;;
35909;SDS011;22004;49.120;-0.200;2022-09-13T03:36:32;5.60;;;2.10;;
35909;SDS011;22004;49.120;-0.200;2022-09-13T03:39:10;8.07;;;2.95;;
35909;SDS011;22004;49.120;-0.200;2022-09-13T03:42:05;11.25;;;2.55;;
35909;SDS011;22004;49.120;-0.200;2022-09-13T03:44:40;8.73;;;1.95;;
35909;SDS011;22004;49.120;-0.200;2022-09-13T03:47:10;6.82;;;2.08;;
35909;SDS011;22004;49.120;-0.200;2022-09-13T03:49:37;4.20;;;2.10;;
35909;SDS011;22004;49.120;-0.200;2022-09-13T03:52:03;2.92;;;1.98;;
35909;SDS011;22004;49.120;-0.200;2022-09-13T03:54:30;3.42;;;2.33;;
35909;SDS011;22004;49.120;-0.200;2022-09-13T03:57:13;5.18;;;2.30;;
35909;SDS011;22004;49.120;-0.200;2022-09-13T03:59:51;7.32;;;2.25;;
35909;SDS011;22004;49.120;-0.200;2022-09-13T04:02:18;4.90;;;2.00;;
35909;SDS011;22004;49.120;-0.200;2022-09-13T04:04:45;4.38;;;2.45;;
35909;SDS011;22004;49.120;-0.200;2022-09-13T04:07:12;3.75;;;2.00;;
35909;SDS011;22004;49.120;-0.200;2022-09-13T04:09:42;9.02;;;2.17;;
35909;SDS011;22004;49.120;-0.200;2022-09-13T04:12:08;5.00;;;2.35;;
35909;SDS011;22004;49.120;-0.200;2022-09-13T04:14:38;3.97;;;2.10;;
35909;SDS011;22004;49.120;-0.200;2022-09-13T04:17:04;3.53;;;2.70;;
35909;SDS011;22004;49.120;-0.200;2022-09-13T04:19:30;5.80;;;2.53;;
35909;SDS011;22004;49.120;-0.200;2022-09-13T04:21:55;4.78;;;2.20;;
35909;SDS011;22004;49.120;-0.200;2022-09-13T04:24:23;5.85;;;2.30;;
35909;SDS011;22004;49.120;-0.200;2022-09-13T04:26:53;6.75;;;2.45;;
35909;SDS011;22004;49.120;-0.200;2022-09-13T04:29:20;9.48;;;2.40;;
35909;SDS011;22004;49.120;-0.200;2022-09-13T04:31:47;6.50;;;2.22;;
35909;SDS011;22004;49.120;-0.200;2022-09-13T04:34:14;3.95;;;1.90;;
35909;SDS011;22004;49.120;-0.200;2022-09-13T04:36:39;7.30;;;2.20;;
35909;SDS011;22004;49.120;-0.200;2022-09-13T04:39:05;6.80;;;2.50;;
35909;SDS011;22004;49.120;-0.200;2022-09-13T04:41:30;7.13;;;2.00;;
35909;SDS011;22004;49.120;-0.200;2022-09-13T04:43:57;10.55;;;2.05;;
35909;SDS011;22004;49.120;-0.200;2022-09-13T04:46:23;4.18;;;1.75;;
35909;SDS011;22004;49.120;-0.200;2022-09-13T04:48:49;5.60;;;1.98;;
35909;SDS011;22004;49.120;-0.200;2022-09-13T04:51:15;7.00;;;2.28;;
35909;SDS011;22004;49.120;-0.200;2022-09-13T04:53:41;5.55;;;2.22;;
35909;SDS011;22004;49.120;-0.200;2022-09-13T04:56:07;3.63;;;2.20;;
35909;SDS011;22004;49.120;-0.200;2022-09-13T04:58:33;4.35;;;2.17;;
35909;SDS011;22004;49.120;-0.200;2022-09-13T05:01:02;3.05;;;1.67;;
35909;SDS011;22004;49.120;-0.200;2022-09-13T05:03:31;6.65;;;1.77;;
35909;SDS011;22004;49.120;-0.200;2022-09-13T05:06:04;5.55;;;2.08;;
35909;SDS011;22004;49.120;-0.200;2022-09-13T05:08:32;2.50;;;2.08;;
35909;SDS011;22004;49.120;-0.200;2022-09-13T05:10:58;5.18;;;1.98;;
35909;SDS011;22004;49.120;-0.200;2022-09-13T05:13:24;5.45;;;1.80;;
35909;SDS011;22004;49.120;-0.200;2022-09-13T05:15:58;3.53;;;2.10;;
35909;SDS011;22004;49.120;-0.200;2022-09-13T05:18:25;4.38;;;2.20;;
35909;SDS011;22004;49.120;-0.200;2022-09-13T05:20:57;7.28;;;2.33;;
35909;SDS011;22004;49.120;-0.200;2022-09-13T05:23:24;6.13;;;1.88;;
35909;SDS011;22004;49.120;-0.200;2022-09-13T05:25:51;2.95;;;1.60;;
35909;SDS011;22004;49.120;-0.200;2022-09-13T05:28:17;4.53;;;1.83;;
35909;SDS011;22004;49.120;-0.200;2022-09-13T05:30:43;5.57;;;1.90;;
35909;SDS011;22004;49.120;-0.200;2022-09-13T05:33:08;2.97;;;1.65;;
35909;SDS011;22004;49.120;-0.200;2022-09-13T05:35:33;3.33;;;1.73;;
35909;SDS011;22004;49.120;-0.200;2022-09-13T05:37:59;3.83;;;1.88;;
35909;SDS011;22004;49.120;-0.200;2022-09-13T05:40:24;4.57;;;1.80;;
35909;SDS011;22004;49.120;-0.200;2022-09-13T05:42:51;2.03;;;1.88;;
35909;SDS011;22004;49.120;-0.200;2022-09-13T05:45:17;4.57;;;1.77;;
35909;SDS011;22004;49.120;-0.200;2022-09-13T05:47:42;4.07;;;2.10;;
35909;SDS011;22004;49.120;-0.200;2022-09-13T05:50:07;4.88;;;2.47;;
35909;SDS011;22004;49.120;-0.200;2022-09-13T05:52:34;5.40;;;2.30;;
35909;SDS011;22004;49.120;-0.200;2022-09-13T05:54:59;5.22;;;1.80;;
35909;SDS011;22004;49.120;-0.200;2022-09-13T05:57:24;7.07;;;2.08;;
35909;SDS011;22004;49.120;-0.200;2022-09-13T05:59:50;4.15;;;1.83;;
35909;SDS011;22004;49.120;-0.200;2022-09-13T06:02:15;4.07;;;2.28;;
35909;SDS011;22004;49.120;-0.200;2022-09-13T06:04:40;3.78;;;1.80;;
35909;SDS011;22004;49.120;-0.200;2022-09-13T06:07:06;8.13;;;2.13;;
35909;SDS011;22004;49.120;-0.200;2022-09-13T06:09:31;9.57;;;2.20;;
35909;SDS011;22004;49.120;-0.200;2022-09-13T06:11:56;13.60;;;2.67;;
35909;SDS011;22004;49.120;-0.200;2022-09-13T06:14:22;11.15;;;2.15;;
35909;SDS011;22004;49.120;-0.200;2022-09-13T06:16:48;8.82;;;2.30;;
35909;SDS011;22004;49.120;-0.200;2022-09-13T06:19:13;5.70;;;1.90;;
35909;SDS011;22004;49.120;-0.200;2022-09-13T06:21:38;4.60;;;1.80;;
35909;SDS011;22004;49.120;-0.200;2022-09-13T06:24:04;6.00;;;2.53;;
35909;SDS011;22004;49.120;-0.200;2022-09-13T06:26:30;3.72;;;2.05;;
35909;SDS011;22004;49.120;-0.200;2022-09-13T06:28:56;4.50;;;1.98;;
35909;SDS011;22004;49.120;-0.200;2022-09-13T06:31:23;4.60;;;2.00;;
35909;SDS011;22004;49.120;-0.200;2022-09-13T06:33:54;3.50;;;2.17;;
35909;SDS011;22004;49.120;-0.200;2022-09-13T06:36:21;6.50;;;2.47;;
35909;SDS011;22004;49.120;-0.200;2022-09-13T06:38:47;3.80;;;1.90;;
35909;SDS011;22004;49.120;-0.200;2022-09-13T06:41:14;7.00;;;2.15;;
35909;SDS011;22004;49.120;-0.200;2022-09-13T06:43:44;4.45;;;2.20;;
35909;SDS011;22004;49.120;-0.200;2022-09-13T06:46:10;5.45;;;2.05;;
35909;SDS011;22004;49.120;-0.200;2022-09-13T06:48:38;6.18;;;2.35;;
35909;SDS011;22004;49.120;-0.200;2022-09-13T06:51:12;5.38;;;2.00;;
35909;SDS011;22004;49.120;-0.200;2022-09-13T06:53:39;7.32;;;2.38;;
35909;SDS011;22004;49.120;-0.200;2022-09-13T06:56:06;4.00;;;2.00;;
35909;SDS011;22004;49.120;-0.200;2022-09-13T06:58:37;10.02;;;2.38;;
35909;SDS011;22004;49.120;-0.200;2022-09-13T07:01:04;7.25;;;2.50;;
35909;SDS011;22004;49.120;-0.200;2022-09-13T07:03:44;4.97;;;1.90;;
35909;SDS011;22004;49.120;-0.200;2022-09-13T07:06:15;3.70;;;2.08;;
35909;SDS011;22004;49.120;-0.200;2022-09-13T07:08:42;2.90;;;2.00;;
35909;SDS011;22004;49.120;-0.200;2022-09-13T07:11:09;7.97;;;2.42;;
35909;SDS011;22004;49.120;-0.200;2022-09-13T07:13:36;5.25;;;2.20;;
35909;SDS011;22004;49.120;-0.200;2022-09-13T07:16:06;6.18;;;2.00;;
35909;SDS011;22004;49.120;-0.200;2022-09-13T07:18:33;13.48;;;2.33;;
35909;SDS011;22004;49.120;-0.200;2022-09-13T07:21:00;3.33;;;2.47;;
35909;SDS011;22004;49.120;-0.200;2022-09-13T07:23:27;5.03;;;2.38;;
35909;SDS011;22004;49.120;-0.200;2022-09-13T07:25:54;5.43;;;2.42;;
35909;SDS011;22004;49.120;-0.200;2022-09-13T07:28:20;9.48;;;2.00;;
35909;SDS011;22004;49.120;-0.200;2022-09-13T07:30:45;15.98;;;2.85;;
35909;SDS011;22004;49.120;-0.200;2022-09-13T07:33:10;13.55;;;2.88;;
35909;SDS011;22004;49.120;-0.200;2022-09-13T07:35:36;7.68;;;2.65;;
35909;SDS011;22004;49.120;-0.200;2022-09-13T07:38:02;5.80;;;2.42;;
35909;SDS011;22004;49.120;-0.200;2022-09-13T07:40:27;11.88;;;3.00;;
35909;SDS011;22004;49.120;-0.200;2022-09-13T07:42:52;7.18;;;2.80;;
35909;SDS011;22004;49.120;-0.200;2022-09-13T07:45:18;9.57;;;3.00;;
35909;SDS011;22004;49.120;-0.200;2022-09-13T07:47:43;13.43;;;2.92;;
35909;SDS011;22004;49.120;-0.200;2022-09-13T07:50:09;5.50;;;2.50;;
35909;SDS011;22004;49.120;-0.200;2022-09-13T07:52:35;5.18;;;2.25;;
35909;SDS011;22004;49.120;-0.200;2022-09-13T07:55:02;14.07;;;2.60;;
35909;SDS011;22004;49.120;-0.200;2022-09-13T07:57:28;5.82;;;2.42;;
35909;SDS011;22004;49.120;-0.200;2022-09-13T07:59:53;7.18;;;2.83;;
35909;SDS011;22004;49.120;-0.200;2022-09-13T08:02:19;11.30;;;2.92;;
35909;SDS011;22004;49.120;-0.200;2022-09-13T08:04:44;13.65;;;2.60;;
35909;SDS011;22004;49.120;-0.200;2022-09-13T08:07:10;7.45;;;2.58;;
35909;SDS011;22004;49.120;-0.200;2022-09-13T08:09:35;16.25;;;3.28;;
35909;SDS011;22004;49.120;-0.200;2022-09-13T08:12:00;5.43;;;2.50;;
35909;SDS011;22004;49.120;-0.200;2022-09-13T08:14:26;8.25;;;2.60;;
35909;SDS011;22004;49.120;-0.200;2022-09-13T08:16:54;8.82;;;2.95;;
35909;SDS011;22004;49.120;-0.200;2022-09-13T08:19:23;8.02;;;2.10;;
35909;SDS011;22004;49.120;-0.200;2022-09-13T08:21:48;6.63;;;2.35;;
35909;SDS011;22004;49.120;-0.200;2022-09-13T08:24:14;10.73;;;2.45;;
35909;SDS011;22004;49.120;-0.200;2022-09-13T08:26:48;6.82;;;2.03;;
35909;SDS011;22004;49.120;-0.200;2022-09-13T08:29:14;5.35;;;1.95;;
35909;SDS011;22004;49.120;-0.200;2022-09-13T08:31:40;8.95;;;3.05;;
35909;SDS011;22004;49.120;-0.200;2022-09-13T08:34:06;5.28;;;2.20;;
35909;SDS011;22004;49.120;-0.200;2022-09-13T08:36:35;4.80;;;2.25;;
35909;SDS011;22004;49.120;-0.200;2022-09-13T08:39:00;10.27;;;2.42;;
35909;SDS011;22004;49.120;-0.200;2022-09-13T08:44:05;6.82;;;2.15;;
35909;SDS011;22004;49.120;-0.200;2022-09-13T08:46:50;2.95;;;1.92;;
35909;SDS011;22004;49.120;-0.200;2022-09-13T08:49:23;8.27;;;2.25;;
35909;SDS011;22004;49.120;-0.200;2022-09-13T08:54:22;5.07;;;2.10;;
35909;SDS011;22004;49.120;-0.200;2022-09-13T08:59:28;5.20;;;2.20;;
35909;SDS011;22004;49.120;-0.200;2022-09-13T09:04:45;10.88;;;2.60;;
35909;SDS011;22004;49.120;-0.200;2022-09-13T09:07:35;18.23;;;2.97;;
35909;SDS011;22004;49.120;-0.200;2022-09-13T09:10:11;6.00;;;2.50;;
35909;SDS011;22004;49.120;-0.200;2022-09-13T09:12:40;7.18;;;2.80;;
35909;SDS011;22004;49.120;-0.200;2022-09-13T09:20:22;8.27;;;2.55;;
35909;SDS011;22004;49.120;-0.200;2022-09-13T09:22:50;15.75;;;3.75;;
35909;SDS011;22004;49.120;-0.200;2022-09-13T09:25:19;15.68;;;3.40;;
35909;SDS011;22004;49.120;-0.200;2022-09-13T09:27:46;11.73;;;2.90;;
35909;SDS011;22004;49.120;-0.200;2022-09-13T09:30:12;17.30;;;3.10;;
35909;SDS011;22004;49.120;-0.200;2022-09-13T09:38:29;7.80;;;2.65;;
35909;SDS011;22004;49.120;-0.200;2022-09-13T09:41:08;8.07;;;2.80;;
35909;SDS011;22004;49.120;-0.200;2022-09-13T09:46:26;6.25;;;2.40;;
35909;SDS011;22004;49.120;-0.200;2022-09-13T09:48:59;4.90;;;2.30;;
35909;SDS011;22004;49.120;-0.200;2022-09-13T09:51:50;10.00;;;2.63;;
35909;SDS011;22004;49.120;-0.200;2022-09-13T09:54:18;11.40;;;3.65;;
35909;SDS011;22004;49.120;-0.200;2022-09-13T09:56:53;9.77;;;2.80;;
35909;SDS011;22004;49.120;-0.200;2022-09-13T09:59:27;6.05;;;2.75;;
35909;SDS011;22004;49.120;-0.200;2022-09-13T10:01:55;7.35;;;2.75;;
35909;SDS011;22004;49.120;-0.200;2022-09-13T10:04:22;9.63;;;3.00;;
35909;SDS011;22004;49.120;-0.200;2022-09-13T10:06:48;6.25;;;2.90;;
35909;SDS011;22004;49.120;-0.200;2022-09-13T10:09:18;6.45;;;2.63;;
35909;SDS011;22004;49.120;-0.200;2022-09-13T10:14:36;9.13;;;3.10;;
35909;SDS011;22004;49.120;-0.200;2022-09-13T10:17:23;9.35;;;4.07;;
35909;SDS011;22004;49.120;-0.200;2022-09-13T10:20:00;8.15;;;3.78;;
35909;SDS011;22004;49.120;-0.200;2022-09-13T10:22:28;10.55;;;3.47;;
35909;SDS011;22004;49.120;-0.200;2022-09-13T10:25:17;19.73;;;3.75;;
35909;SDS011;22004;49.120;-0.200;2022-09-13T10:27:48;10.77;;;4.00;;
35909;SDS011;22004;49.120;-0.200;2022-09-13T10:30:37;10.35;;;3.53;;
35909;SDS011;22004;49.120;-0.200;2022-09-13T10:33:06;7.32;;;3.22;;
35909;SDS011;22004;49.120;-0.200;2022-09-13T10:35:48;8.60;;;3.47;;
35909;SDS011;22004;49.120;-0.200;2022-09-13T10:38:28;6.53;;;2.95;;
35909;SDS011;22004;49.120;-0.200;2022-09-13T10:40:58;8.05;;;3.03;;
35909;SDS011;22004;49.120;-0.200;2022-09-13T10:43:26;6.47;;;3.28;;
35909;SDS011;22004;49.120;-0.200;2022-09-13T10:45:54;10.80;;;3.60;;
35909;SDS011;22004;49.120;-0.200;2022-09-13T10:48:20;6.40;;;3.78;;
35909;SDS011;22004;49.120;-0.200;2022-09-13T10:53:34;7.03;;;3.00;;
35909;SDS011;22004;49.120;-0.200;2022-09-13T10:56:02;12.05;;;2.78;;
35909;SDS011;22004;49.120;-0.200;2022-09-13T10:58:28;7.80;;;3.10;;
35909;SDS011;22004;49.120;-0.200;2022-09-13T11:06:27;7.50;;;3.20;;
35909;SDS011;22004;49.120;-0.200;2022-09-13T11:09:32;8.45;;;3.25;;
35909;SDS011;22004;49.120;-0.200;2022-09-13T11:47:24;9.65;;;3.63;;
35909;SDS011;22004;49.120;-0.200;2022-09-13T11:50:00;7.78;;;3.40;;
35909;SDS011;22004;49.120;-0.200;2022-09-13T11:55:25;5.78;;;2.90;;
35909;SDS011;22004;49.120;-0.200;2022-09-13T11:57:52;8.05;;;3.20;;
35909;SDS011;22004;49.120;-0.200;2022-09-13T12:00:22;7.78;;;3.28;;
35909;SDS011;22004;49.120;-0.200;2022-09-13T12:06:09;5.22;;;2.92;;
35909;SDS011;22004;49.120;-0.200;2022-09-13T12:08:41;9.82;;;2.92;;
35909;SDS011;22004;49.120;-0.200;2022-09-13T12:13:57;5.65;;;3.17;;
35909;SDS011;22004;49.120;-0.200;2022-09-13T12:16:29;17.55;;;3.90;;
35909;SDS011;22004;49.120;-0.200;2022-09-13T12:19:00;8.05;;;3.30;;
35909;SDS011;22004;49.120;-0.200;2022-09-13T12:21:40;8.68;;;3.03;;
35909;SDS011;22004;49.120;-0.200;2022-09-13T12:24:22;8.90;;;3.20;;
35909;SDS011;22004;49.120;-0.200;2022-09-13T12:27:03;7.75;;;3.67;;
35909;SDS011;22004;49.120;-0.200;2022-09-13T12:29:54;6.80;;;3.08;;
35909;SDS011;22004;49.120;-0.200;2022-09-13T12:32:28;8.68;;;3.70;;
35909;SDS011;22004;49.120;-0.200;2022-09-13T12:35:05;7.57;;;3.22;;
35909;SDS011;22004;49.120;-0.200;2022-09-13T12:59:41;13.57;;;2.80;;
35909;SDS011;22004;49.120;-0.200;2022-09-13T13:02:38;11.82;;;3.22;;
35909;SDS011;22004;49.120;-0.200;2022-09-13T13:05:29;9.30;;;3.10;;
35909;SDS011;22004;49.120;-0.200;2022-09-13T13:08:03;8.63;;;2.75;;
35909;SDS011;22004;49.120;-0.200;2022-09-13T13:10:42;4.47;;;2.60;;
35909;SDS011;22004;49.120;-0.200;2022-09-13T13:13:08;8.32;;;3.00;;
35909;SDS011;22004;49.120;-0.200;2022-09-13T13:29:21;13.68;;;3.30;;
35909;SDS011;22004;49.120;-0.200;2022-09-13T13:39:42;7.70;;;3.15;;
35909;SDS011;22004;49.120;-0.200;2022-09-13T13:45:19;8.93;;;3.20;;
35909;SDS011;22004;49.120;-0.200;2022-09-13T13:50:29;7.50;;;3.17;;
35909;SDS011;22004;49.120;-0.200;2022-09-13T13:52:56;6.22;;;2.60;;
35909;SDS011;22004;49.120;-0.200;2022-09-13T14:03:53;5.72;;;3.15;;
35909;SDS011;22004;49.120;-0.200;2022-09-13T14:09:28;5.55;;;2.67;;
35909;SDS011;22004;49.120;-0.200;2022-09-13T14:12:06;6.68;;;3.10;;
35909;SDS011;22004;49.120;-0.200;2022-09-13T14:19:51;9.70;;;2.63;;
35909;SDS011;22004;49.120;-0.200;2022-09-13T14:22:23;4.55;;;3.10;;
35909;SDS011;22004;49.120;-0.200;2022-09-13T14:27:19;6.25;;;3.08;;
35909;SDS011;22004;49.120;-0.200;2022-09-13T14:29:57;4.03;;;2.33;;
35909;SDS011;22004;49.120;-0.200;2022-09-13T14:32:25;10.85;;;2.97;;
35909;SDS011;22004;49.120;-0.200;2022-09-13T14:37:22;11.57;;;3.40;;
35909;SDS011;22004;49.120;-0.200;2022-09-13T14:42:38;9.73;;;2.83;;
35909;SDS011;22004;49.120;-0.200;2022-09-13T14:45:18;6.68;;;2.97;;
35909;SDS011;22004;49.120;-0.200;2022-09-13T14:47:49;9.20;;;2.90;;
35909;SDS011;22004;49.120;-0.200;2022-09-13T14:50:23;7.22;;;3.10;;
35909;SDS011;22004;49.120;-0.200;2022-09-13T14:53:33;7.75;;;2.53;;
35909;SDS011;22004;49.120;-0.200;2022-09-13T14:55:49;9.05;;;3.60;;
35909;SDS011;22004;49.120;-0.200;2022-09-13T14:59:04;9.45;;;3.20;;
35909;SDS011;22004;49.120;-0.200;2022-09-13T15:01:12;6.88;;;3.60;;
35909;SDS011;22004;49.120;-0.200;2022-09-13T15:03:59;7.40;;;3.10;;
35909;SDS011;22004;49.120;-0.200;2022-09-13T15:06:28;12.43;;;3.20;;
35909;SDS011;22004;49.120;-0.200;2022-09-13T15:09:13;6.28;;;3.15;;
35909;SDS011;22004;49.120;-0.200;2022-09-13T15:21:47;9.00;;;3.22;;
35909;SDS011;22004;49.120;-0.200;2022-09-13T15:24:18;9.90;;;3.05;;
35909;SDS011;22004;49.120;-0.200;2022-09-13T15:27:02;12.73;;;3.45;;
35909;SDS011;22004;49.120;-0.200;2022-09-13T15:29:30;8.52;;;3.22;;
35909;SDS011;22004;49.120;-0.200;2022-09-13T15:31:59;14.48;;;3.55;;
35909;SDS011;22004;49.120;-0.200;2022-09-13T15:34:25;13.93;;;3.58;;
35909;SDS011;22004;49.120;-0.200;2022-09-13T15:39:29;9.52;;;3.53;;
35909;SDS011;22004;49.120;-0.200;2022-09-13T15:42:13;7.50;;;3.20;;
35909;SDS011;22004;49.120;-0.200;2022-09-13T15:44:39;10.27;;;3.92;;
35909;SDS011;22004;49.120;-0.200;2022-09-13T15:47:09;9.75;;;3.45;;
35909;SDS011;22004;49.120;-0.200;2022-09-13T15:49:40;15.15;;;3.72;;
35909;SDS011;22004;49.120;-0.200;2022-09-13T15:52:16;10.23;;;4.20;;
35909;SDS011;22004;49.120;-0.200;2022-09-13T15:54:43;9.40;;;2.97;;
35909;SDS011;22004;49.120;-0.200;2022-09-13T15:59:53;14.18;;;3.60;;
35909;SDS011;22004;49.120;-0.200;2022-09-13T16:04:47;9.10;;;3.53;;
35909;SDS011;22004;49.120;-0.200;2022-09-13T16:07:13;7.03;;;3.38;;
35909;SDS011;22004;49.120;-0.200;2022-09-13T16:09:39;6.50;;;3.30;;
35909;SDS011;22004;49.120;-0.200;2022-09-13T16:12:05;10.85;;;3.25;;
35909;SDS011;22004;49.120;-0.200;2022-09-13T16:14:30;6.65;;;3.35;;
35909;SDS011;22004;49.120;-0.200;2022-09-13T16:16:55;10.65;;;3.22;;
35909;SDS011;22004;49.120;-0.200;2022-09-13T16:19:21;6.72;;;3.20;;
35909;SDS011;22004;49.120;-0.200;2022-09-13T16:21:49;14.13;;;3.20;;
35909;SDS011;22004;49.120;-0.200;2022-09-13T16:24:15;9.90;;;3.30;;
35909;SDS011;22004;49.120;-0.200;2022-09-13T16:26:40;7.35;;;2.95;;
35909;SDS011;22004;49.120;-0.200;2022-09-13T16:29:07;10.98;;;3.47;;
35909;SDS011;22004;49.120;-0.200;2022-09-13T16:31:34;8.15;;;2.83;;
35909;SDS011;22004;49.120;-0.200;2022-09-13T16:33:59;10.27;;;3.38;;
35909;SDS011;22004;49.120;-0.200;2022-09-13T16:36:24;5.78;;;3.03;;
35909;SDS011;22004;49.120;-0.200;2022-09-13T16:38:52;7.38;;;2.90;;
35909;SDS011;22004;49.120;-0.200;2022-09-13T16:41:21;11.30;;;3.50;;
35909;SDS011;22004;49.120;-0.200;2022-09-13T16:43:46;9.98;;;3.38;;
35909;SDS011;22004;49.120;-0.200;2022-09-13T16:46:12;8.57;;;2.90;;
35909;SDS011;22004;49.120;-0.200;2022-09-13T16:48:38;5.68;;;2.80;;
35909;SDS011;22004;49.120;-0.200;2022-09-13T16:51:05;4.97;;;2.63;;
35909;SDS011;22004;49.120;-0.200;2022-09-13T16:53:32;5.80;;;3.08;;
35909;SDS011;22004;49.120;-0.200;2022-09-13T16:56:05;7.35;;;2.88;;
35909;SDS011;22004;49.120;-0.200;2022-09-13T16:58:31;7.55;;;3.42;;
35909;SDS011;22004;49.120;-0.200;2022-09-13T17:00:56;9.43;;;2.50;;
35909;SDS011;22004;49.120;-0.200;2022-09-13T17:03:22;11.73;;;3.35;;
35909;SDS011;22004;49.120;-0.200;2022-09-13T17:06:00;7.20;;;2.88;;
35909;SDS011;22004;49.120;-0.200;2022-09-13T17:08:27;7.38;;;3.35;;
35909;SDS011;22004;49.120;-0.200;2022-09-13T17:10:53;4.60;;;2.80;;
35909;SDS011;22004;49.120;-0.200;2022-09-13T17:13:18;4.90;;;2.72;;
35909;SDS011;22004;49.120;-0.200;2022-09-13T17:15:44;9.25;;;2.95;;
35909;SDS011;22004;49.120;-0.200;2022-09-13T17:18:09;13.73;;;3.10;;
35909;SDS011;22004;49.120;-0.200;2022-09-13T17:20:34;8.32;;;3.45;;
35909;SDS011;22004;49.120;-0.200;2022-09-13T17:23:00;11.38;;;3.08;;
35909;SDS011;22004;49.120;-0.200;2022-09-13T17:25:26;6.35;;;3.13;;
35909;SDS011;22004;49.120;-0.200;2022-09-13T17:27:51;9.88;;;3.25;;
35909;SDS011;22004;49.120;-0.200;2022-09-13T17:30:17;6.90;;;2.97;;
35909;SDS011;22004;49.120;-0.200;2022-09-13T17:32:42;7.85;;;3.30;;
35909;SDS011;22004;49.120;-0.200;2022-09-13T17:35:07;7.80;;;3.15;;
35909;SDS011;22004;49.120;-0.200;2022-09-13T17:37:35;6.65;;;3.20;;
35909;SDS011;22004;49.120;-0.200;2022-09-13T17:40:00;6.20;;;3.25;;
35909;SDS011;22004;49.120;-0.200;2022-09-13T17:42:26;7.38;;;3.08;;
35909;SDS011;22004;49.120;-0.200;2022-09-13T17:44:51;11.65;;;3.28;;
35909;SDS011;22004;49.120;-0.200;2022-09-13T17:47:17;13.05;;;2.88;;
35909;SDS011;22004;49.120;-0.200;2022-09-13T17:49:42;6.90;;;3.30;;
35909;SDS011;22004;49.120;-0.200;2022-09-13T17:52:07;12.40;;;3.50;;
35909;SDS011;22004;49.120;-0.200;2022-09-13T17:54:33;12.18;;;3.35;;
35909;SDS011;22004;49.120;-0.200;2022-09-13T17:56:59;8.82;;;3.90;;
35909;SDS011;22004;49.120;-0.200;2022-09-13T17:59:24;12.68;;;3.80;;
35909;SDS011;22004;49.120;-0.200;2022-09-13T18:01:50;7.75;;;3.28;;
35909;SDS011;22004;49.120;-0.200;2022-09-13T18:04:18;6.40;;;3.50;;
35909;SDS011;22004;49.120;-0.200;2022-09-13T18:06:45;9.82;;;3.60;;
35909;SDS011;22004;49.120;-0.200;2022-09-13T18:09:11;11.15;;;3.85;;
35909;SDS011;22004;49.120;-0.200;2022-09-13T18:11:38;7.68;;;3.55;;
35909;SDS011;22004;49.120;-0.200;2022-09-13T18:14:04;9.02;;;3.53;;
35909;SDS011;22004;49.120;-0.200;2022-09-13T18:16:30;13.07;;;3.85;;
35909;SDS011;22004;49.120;-0.200;2022-09-13T18:18:56;8.68;;;3.97;;
35909;SDS011;22004;49.120;-0.200;2022-09-13T18:21:24;11.13;;;3.47;;
35909;SDS011;22004;49.120;-0.200;2022-09-13T18:23:51;11.15;;;4.25;;
35909;SDS011;22004;49.120;-0.200;2022-09-13T18:26:20;8.43;;;3.97;;
35909;SDS011;22004;49.120;-0.200;2022-09-13T18:28:51;8.20;;;4.18;;
35909;SDS011;22004;49.120;-0.200;2022-09-13T18:31:18;12.45;;;4.20;;
35909;SDS011;22004;49.120;-0.200;2022-09-13T18:33:43;9.60;;;4.20;;